sensor_id;sensor_type;location;lat;lon;timestamp;P1;durP1;ratioP1;P2;durP2;ratioP2
30892;SDS011;17595;50.884;4.346;2022-12-07T00:03:35;18.30;;;12.23;;
30892;SDS011;17595;50.884;4.346;2022-12-07T00:06:01;18.15;;;12.60;;
30892;SDS011;17595;50.884;4.346;2022-12-07T00:08:28;19.00;;;12.27;;
30892;SDS011;17595;50.884;4.346;2022-12-07T00:10:54;16.70;;;12.48;;
30892;SDS011;17595;50.884;4.346;2022-12-07T00:13:20;16.65;;;12.20;;
30892;SDS011;17595;50.884;4.346;2022-12-07T00:15:46;18.15;;;11.93;;
30892;SDS011;17595;50.884;4.346;2022-12-07T00:18:11;20.73;;;12.82;;
30892;SDS011;17595;50.884;4.346;2022-12-07T00:20:37;19.45;;;11.98;;
30892;SDS011;17595;50.884;4.346;2022-12-07T00:23:02;19.63;;;12.63;;
30892;SDS011;17595;50.884;4.346;2022-12-07T00:25:28;15.98;;;11.90;;
30892;SDS011;17595;50.884;4.346;2022-12-07T00:27:55;16.48;;;11.93;;
30892;SDS011;17595;50.884;4.346;2022-12-07T00:30:22;17.73;;;12.25;;
30892;SDS011;17595;50.884;4.346;2022-12-07T00:32:48;19.17;;;12.05;;
30892;SDS011;17595;50.884;4.346;2022-12-07T00:35:14;19.92;;;12.10;;
30892;SDS011;17595;50.884;4.346;2022-12-07T00:37:40;20.15;;;12.25;;
30892;SDS011;17595;50.884;4.346;2022-12-07T00:40:05;17.20;;;12.15;;
30892;SDS011;17595;50.884;4.346;2022-12-07T00:42:31;15.13;;;11.77;;
30892;SDS011;17595;50.884;4.346;2022-12-07T00:44:57;16.33;;;11.77;;
30892;SDS011;17595;50.884;4.346;2022-12-07T00:47:23;18.38;;;12.02;;
30892;SDS011;17595;50.884;4.346;2022-12-07T00:49:48;15.73;;;11.68;;
30892;SDS011;17595;50.884;4.346;2022-12-07T00:52:14;14.77;;;11.38;;
30892;SDS011;17595;50.884;4.346;2022-12-07T00:54:39;16.42;;;11.40;;
30892;SDS011;17595;50.884;4.346;2022-12-07T00:57:05;16.98;;;12.02;;
30892;SDS011;17595;50.884;4.346;2022-12-07T00:59:31;14.23;;;11.45;;
30892;SDS011;17595;50.884;4.346;2022-12-07T01:01:56;18.35;;;11.32;;
30892;SDS011;17595;50.884;4.346;2022-12-07T01:04:22;19.27;;;11.82;;
30892;SDS011;17595;50.884;4.346;2022-12-07T01:06:48;16.70;;;11.68;;
30892;SDS011;17595;50.884;4.346;2022-12-07T01:09:13;16.90;;;11.55;;
30892;SDS011;17595;50.884;4.346;2022-12-07T01:11:39;17.77;;;12.48;;
30892;SDS011;17595;50.884;4.346;2022-12-07T01:14:04;15.15;;;11.15;;
30892;SDS011;17595;50.884;4.346;2022-12-07T01:16:31;17.33;;;12.20;;
30892;SDS011;17595;50.884;4.346;2022-12-07T01:18:57;15.13;;;10.45;;
30892;SDS011;17595;50.884;4.346;2022-12-07T01:21:25;19.42;;;12.80;;
30892;SDS011;17595;50.884;4.346;2022-12-07T01:23:53;17.33;;;12.23;;
30892;SDS011;17595;50.884;4.346;2022-12-07T01:26:20;17.55;;;12.55;;
30892;SDS011;17595;50.884;4.346;2022-12-07T01:28:47;17.87;;;12.33;;
30892;SDS011;17595;50.884;4.346;2022-12-07T01:31:14;18.67;;;12.63;;
30892;SDS011;17595;50.884;4.346;2022-12-07T01:33:43;15.82;;;11.82;;
30892;SDS011;17595;50.884;4.346;2022-12-07T01:36:17;15.52;;;11.52;;
30892;SDS011;17595;50.884;4.346;2022-12-07T01:38:48;13.80;;;11.45;;
30892;SDS011;17595;50.884;4.346;2022-12-07T01:41:17;16.35;;;12.02;;
30892;SDS011;17595;50.884;4.346;2022-12-07T01:46:32;16.92;;;11.98;;
30892;SDS011;17595;50.884;4.346;2022-12-07T01:48:57;15.63;;;11.02;;
30892;SDS011;17595;50.884;4.346;2022-12-07T01:51:24;18.55;;;11.32;;
30892;SDS011;17595;50.884;4.346;2022-12-07T01:53:50;14.68;;;11.38;;
30892;SDS011;17595;50.884;4.346;2022-12-07T01:56:17;17.05;;;12.10;;
30892;SDS011;17595;50.884;4.346;2022-12-07T01:58:47;18.25;;;12.32;;
30892;SDS011;17595;50.884;4.346;2022-12-07T02:01:13;14.98;;;11.25;;
30892;SDS011;17595;50.884;4.346;2022-12-07T02:03:40;14.80;;;11.15;;
30892;SDS011;17595;50.884;4.346;2022-12-07T02:06:08;15.70;;;11.10;;
30892;SDS011;17595;50.884;4.346;2022-12-07T02:08:35;17.05;;;11.35;;
30892;SDS011;17595;50.884;4.346;2022-12-07T02:11:02;20.65;;;12.00;;
30892;SDS011;17595;50.884;4.346;2022-12-07T02:13:30;18.55;;;12.40;;
30892;SDS011;17595;50.884;4.346;2022-12-07T02:16:01;18.75;;;11.98;;
30892;SDS011;17595;50.884;4.346;2022-12-07T02:21:38;19.55;;;12.77;;
30892;SDS011;17595;50.884;4.346;2022-12-07T02:24:15;16.80;;;11.50;;
30892;SDS011;17595;50.884;4.346;2022-12-07T02:29:56;14.70;;;11.07;;
30892;SDS011;17595;50.884;4.346;2022-12-07T02:38:29;17.45;;;11.40;;
30892;SDS011;17595;50.884;4.346;2022-12-07T02:41:01;17.02;;;11.85;;
30892;SDS011;17595;50.884;4.346;2022-12-07T02:43:38;16.98;;;12.57;;
30892;SDS011;17595;50.884;4.346;2022-12-07T02:46:09;16.10;;;12.23;;
30892;SDS011;17595;50.884;4.346;2022-12-07T02:48:39;14.57;;;11.35;;
30892;SDS011;17595;50.884;4.346;2022-12-07T02:51:06;15.65;;;11.57;;
30892;SDS011;17595;50.884;4.346;2022-12-07T02:53:36;14.38;;;12.38;;
30892;SDS011;17595;50.884;4.346;2022-12-07T02:59:02;16.67;;;11.35;;
30892;SDS011;17595;50.884;4.346;2022-12-07T03:04:53;16.75;;;10.73;;
30892;SDS011;17595;50.884;4.346;2022-12-07T03:09:58;15.48;;;11.65;;
30892;SDS011;17595;50.884;4.346;2022-12-07T03:15:25;17.27;;;11.55;;
30892;SDS011;17595;50.884;4.346;2022-12-07T03:18:16;17.98;;;11.20;;
30892;SDS011;17595;50.884;4.346;2022-12-07T03:23:13;16.90;;;10.45;;
30892;SDS011;17595;50.884;4.346;2022-12-07T03:25:43;14.07;;;10.60;;
30892;SDS011;17595;50.884;4.346;2022-12-07T03:28:14;13.20;;;10.52;;
30892;SDS011;17595;50.884;4.346;2022-12-07T03:30:54;16.25;;;11.70;;
30892;SDS011;17595;50.884;4.346;2022-12-07T03:33:26;15.93;;;11.35;;
30892;SDS011;17595;50.884;4.346;2022-12-07T03:36:07;17.55;;;10.82;;
30892;SDS011;17595;50.884;4.346;2022-12-07T03:38:52;15.90;;;10.27;;
30892;SDS011;17595;50.884;4.346;2022-12-07T03:41:23;16.02;;;11.07;;
30892;SDS011;17595;50.884;4.346;2022-12-07T03:49:05;13.20;;;10.07;;
30892;SDS011;17595;50.884;4.346;2022-12-07T03:51:35;14.90;;;10.57;;
30892;SDS011;17595;50.884;4.346;2022-12-07T03:56:40;19.60;;;10.88;;
30892;SDS011;17595;50.884;4.346;2022-12-07T03:59:08;14.13;;;10.75;;
30892;SDS011;17595;50.884;4.346;2022-12-07T04:01:34;15.88;;;10.52;;
30892;SDS011;17595;50.884;4.346;2022-12-07T04:04:00;17.33;;;10.93;;
30892;SDS011;17595;50.884;4.346;2022-12-07T04:06:26;19.15;;;10.80;;
30892;SDS011;17595;50.884;4.346;2022-12-07T04:08:51;14.70;;;10.50;;
30892;SDS011;17595;50.884;4.346;2022-12-07T04:11:17;14.45;;;10.70;;
30892;SDS011;17595;50.884;4.346;2022-12-07T04:13:42;13.55;;;9.57;;
30892;SDS011;17595;50.884;4.346;2022-12-07T04:16:26;13.38;;;9.60;;
30892;SDS011;17595;50.884;4.346;2022-12-07T04:18:52;14.30;;;9.88;;
30892;SDS011;17595;50.884;4.346;2022-12-07T04:21:18;15.77;;;10.27;;
30892;SDS011;17595;50.884;4.346;2022-12-07T04:23:43;13.63;;;9.73;;
30892;SDS011;17595;50.884;4.346;2022-12-07T04:26:09;15.88;;;10.60;;
30892;SDS011;17595;50.884;4.346;2022-12-07T04:28:34;17.77;;;9.88;;
30892;SDS011;17595;50.884;4.346;2022-12-07T04:31:00;15.93;;;9.23;;
30892;SDS011;17595;50.884;4.346;2022-12-07T04:33:25;12.93;;;9.40;;
30892;SDS011;17595;50.884;4.346;2022-12-07T04:35:51;13.98;;;10.20;;
30892;SDS011;17595;50.884;4.346;2022-12-07T04:38:16;15.40;;;9.98;;
30892;SDS011;17595;50.884;4.346;2022-12-07T04:40:42;14.23;;;10.20;;
30892;SDS011;17595;50.884;4.346;2022-12-07T04:43:08;16.80;;;10.77;;
30892;SDS011;17595;50.884;4.346;2022-12-07T04:45:33;14.90;;;9.63;;
30892;SDS011;17595;50.884;4.346;2022-12-07T04:47:59;14.07;;;9.43;;
30892;SDS011;17595;50.884;4.346;2022-12-07T04:50:24;17.48;;;9.15;;
30892;SDS011;17595;50.884;4.346;2022-12-07T04:52:50;13.60;;;9.25;;
30892;SDS011;17595;50.884;4.346;2022-12-07T04:55:15;14.20;;;9.25;;
30892;SDS011;17595;50.884;4.346;2022-12-07T04:57:41;14.38;;;9.05;;
30892;SDS011;17595;50.884;4.346;2022-12-07T05:00:07;13.55;;;9.30;;
30892;SDS011;17595;50.884;4.346;2022-12-07T05:02:33;14.50;;;9.25;;
30892;SDS011;17595;50.884;4.346;2022-12-07T05:04:58;14.23;;;9.25;;
30892;SDS011;17595;50.884;4.346;2022-12-07T05:07:24;11.65;;;9.10;;
30892;SDS011;17595;50.884;4.346;2022-12-07T05:09:49;13.57;;;9.02;;
30892;SDS011;17595;50.884;4.346;2022-12-07T05:12:15;12.68;;;8.80;;
30892;SDS011;17595;50.884;4.346;2022-12-07T05:14:41;11.38;;;8.60;;
30892;SDS011;17595;50.884;4.346;2022-12-07T05:17:06;18.35;;;8.48;;
30892;SDS011;17595;50.884;4.346;2022-12-07T05:19:32;11.80;;;8.75;;
30892;SDS011;17595;50.884;4.346;2022-12-07T05:21:57;15.45;;;8.90;;
30892;SDS011;17595;50.884;4.346;2022-12-07T05:24:23;12.90;;;9.00;;
30892;SDS011;17595;50.884;4.346;2022-12-07T05:26:48;14.68;;;9.07;;
30892;SDS011;17595;50.884;4.346;2022-12-07T05:29:15;12.82;;;8.63;;
30892;SDS011;17595;50.884;4.346;2022-12-07T05:31:42;11.98;;;9.32;;
30892;SDS011;17595;50.884;4.346;2022-12-07T05:34:08;12.82;;;8.75;;
30892;SDS011;17595;50.884;4.346;2022-12-07T05:36:34;15.35;;;9.55;;
30892;SDS011;17595;50.884;4.346;2022-12-07T05:39:00;14.73;;;8.50;;
30892;SDS011;17595;50.884;4.346;2022-12-07T05:41:26;12.25;;;8.80;;
30892;SDS011;17595;50.884;4.346;2022-12-07T05:44:10;11.65;;;8.48;;
30892;SDS011;17595;50.884;4.346;2022-12-07T05:46:35;15.68;;;9.80;;
30892;SDS011;17595;50.884;4.346;2022-12-07T05:49:01;13.15;;;8.77;;
30892;SDS011;17595;50.884;4.346;2022-12-07T05:51:27;10.65;;;8.07;;
30892;SDS011;17595;50.884;4.346;2022-12-07T05:53:53;11.95;;;8.48;;
30892;SDS011;17595;50.884;4.346;2022-12-07T05:56:19;15.00;;;8.18;;
30892;SDS011;17595;50.884;4.346;2022-12-07T05:58:44;14.35;;;9.05;;
30892;SDS011;17595;50.884;4.346;2022-12-07T06:01:29;12.65;;;8.23;;
30892;SDS011;17595;50.884;4.346;2022-12-07T06:03:54;12.48;;;8.13;;
30892;SDS011;17595;50.884;4.346;2022-12-07T06:06:20;11.32;;;8.70;;
30892;SDS011;17595;50.884;4.346;2022-12-07T06:08:46;13.85;;;8.20;;
30892;SDS011;17595;50.884;4.346;2022-12-07T06:11:11;13.18;;;8.02;;
30892;SDS011;17595;50.884;4.346;2022-12-07T06:13:56;13.25;;;7.85;;
30892;SDS011;17595;50.884;4.346;2022-12-07T06:16:21;12.43;;;8.38;;
30892;SDS011;17595;50.884;4.346;2022-12-07T06:18:47;12.55;;;8.48;;
30892;SDS011;17595;50.884;4.346;2022-12-07T06:21:12;13.50;;;8.73;;
30892;SDS011;17595;50.884;4.346;2022-12-07T06:23:39;13.70;;;7.82;;
30892;SDS011;17595;50.884;4.346;2022-12-07T06:26:04;12.90;;;8.43;;
30892;SDS011;17595;50.884;4.346;2022-12-07T06:28:30;12.52;;;7.90;;
30892;SDS011;17595;50.884;4.346;2022-12-07T06:30:59;11.25;;;8.32;;
30892;SDS011;17595;50.884;4.346;2022-12-07T06:33:26;12.88;;;7.97;;
30892;SDS011;17595;50.884;4.346;2022-12-07T06:35:52;11.40;;;8.55;;
30892;SDS011;17595;50.884;4.346;2022-12-07T06:38:17;12.65;;;8.32;;
30892;SDS011;17595;50.884;4.346;2022-12-07T06:40:43;15.23;;;7.80;;
30892;SDS011;17595;50.884;4.346;2022-12-07T06:43:08;10.57;;;7.40;;
30892;SDS011;17595;50.884;4.346;2022-12-07T06:45:34;14.23;;;8.13;;
30892;SDS011;17595;50.884;4.346;2022-12-07T06:48:00;12.73;;;7.85;;
30892;SDS011;17595;50.884;4.346;2022-12-07T06:50:25;11.88;;;7.60;;
30892;SDS011;17595;50.884;4.346;2022-12-07T06:52:51;11.57;;;7.53;;
30892;SDS011;17595;50.884;4.346;2022-12-07T06:55:17;14.48;;;7.95;;
30892;SDS011;17595;50.884;4.346;2022-12-07T06:57:42;11.90;;;7.50;;
30892;SDS011;17595;50.884;4.346;2022-12-07T07:00:08;14.52;;;8.23;;
30892;SDS011;17595;50.884;4.346;2022-12-07T07:02:34;13.93;;;8.23;;
30892;SDS011;17595;50.884;4.346;2022-12-07T07:05:00;12.63;;;8.20;;
30892;SDS011;17595;50.884;4.346;2022-12-07T07:07:26;15.32;;;8.70;;
30892;SDS011;17595;50.884;4.346;2022-12-07T07:09:51;12.63;;;7.45;;
30892;SDS011;17595;50.884;4.346;2022-12-07T07:12:17;13.73;;;7.80;;
30892;SDS011;17595;50.884;4.346;2022-12-07T07:14:43;13.38;;;8.35;;
30892;SDS011;17595;50.884;4.346;2022-12-07T07:17:08;15.15;;;8.77;;
30892;SDS011;17595;50.884;4.346;2022-12-07T07:19:34;15.50;;;8.73;;
30892;SDS011;17595;50.884;4.346;2022-12-07T07:21:59;10.15;;;7.95;;
30892;SDS011;17595;50.884;4.346;2022-12-07T07:24:25;17.23;;;9.57;;
30892;SDS011;17595;50.884;4.346;2022-12-07T07:26:51;13.52;;;9.10;;
30892;SDS011;17595;50.884;4.346;2022-12-07T07:29:16;16.83;;;9.07;;
30892;SDS011;17595;50.884;4.346;2022-12-07T07:31:42;17.10;;;9.68;;
30892;SDS011;17595;50.884;4.346;2022-12-07T07:34:07;22.40;;;9.32;;
30892;SDS011;17595;50.884;4.346;2022-12-07T07:36:33;15.48;;;8.68;;
30892;SDS011;17595;50.884;4.346;2022-12-07T07:38:58;21.00;;;8.75;;
30892;SDS011;17595;50.884;4.346;2022-12-07T07:41:24;17.65;;;8.20;;
30892;SDS011;17595;50.884;4.346;2022-12-07T07:43:50;22.73;;;9.07;;
30892;SDS011;17595;50.884;4.346;2022-12-07T07:46:15;18.17;;;8.57;;
30892;SDS011;17595;50.884;4.346;2022-12-07T07:48:41;19.73;;;8.30;;
30892;SDS011;17595;50.884;4.346;2022-12-07T07:51:08;15.18;;;8.88;;
30892;SDS011;17595;50.884;4.346;2022-12-07T07:53:33;14.93;;;8.65;;
30892;SDS011;17595;50.884;4.346;2022-12-07T07:55:59;14.55;;;9.73;;
30892;SDS011;17595;50.884;4.346;2022-12-07T07:58:25;12.70;;;8.40;;
30892;SDS011;17595;50.884;4.346;2022-12-07T08:00:51;14.60;;;8.27;;
30892;SDS011;17595;50.884;4.346;2022-12-07T08:03:16;14.55;;;8.98;;
30892;SDS011;17595;50.884;4.346;2022-12-07T08:05:42;13.77;;;8.70;;
30892;SDS011;17595;50.884;4.346;2022-12-07T08:08:08;14.40;;;8.88;;
30892;SDS011;17595;50.884;4.346;2022-12-07T08:10:33;16.00;;;8.70;;
30892;SDS011;17595;50.884;4.346;2022-12-07T08:13:00;17.10;;;8.48;;
30892;SDS011;17595;50.884;4.346;2022-12-07T08:15:41;12.77;;;8.98;;
30892;SDS011;17595;50.884;4.346;2022-12-07T08:18:09;14.65;;;9.38;;
30892;SDS011;17595;50.884;4.346;2022-12-07T08:20:37;12.73;;;8.48;;
30892;SDS011;17595;50.884;4.346;2022-12-07T08:23:03;13.20;;;8.60;;
30892;SDS011;17595;50.884;4.346;2022-12-07T08:25:29;13.73;;;9.35;;
30892;SDS011;17595;50.884;4.346;2022-12-07T08:27:55;16.17;;;8.85;;
30892;SDS011;17595;50.884;4.346;2022-12-07T08:30:21;23.20;;;11.90;;
30892;SDS011;17595;50.884;4.346;2022-12-07T08:32:47;20.50;;;10.40;;
30892;SDS011;17595;50.884;4.346;2022-12-07T08:35:13;15.70;;;9.50;;
30892;SDS011;17595;50.884;4.346;2022-12-07T08:37:40;15.18;;;9.20;;
30892;SDS011;17595;50.884;4.346;2022-12-07T08:40:06;15.20;;;9.30;;
30892;SDS011;17595;50.884;4.346;2022-12-07T08:42:34;16.08;;;9.20;;
30892;SDS011;17595;50.884;4.346;2022-12-07T08:45:05;15.70;;;9.15;;
30892;SDS011;17595;50.884;4.346;2022-12-07T08:47:40;13.32;;;9.07;;
30892;SDS011;17595;50.884;4.346;2022-12-07T08:50:10;11.77;;;8.25;;
30892;SDS011;17595;50.884;4.346;2022-12-07T08:52:37;13.57;;;8.63;;
30892;SDS011;17595;50.884;4.346;2022-12-07T08:55:05;14.90;;;8.35;;
30892;SDS011;17595;50.884;4.346;2022-12-07T08:57:31;15.77;;;8.65;;
30892;SDS011;17595;50.884;4.346;2022-12-07T08:59:59;12.50;;;8.35;;
30892;SDS011;17595;50.884;4.346;2022-12-07T09:02:25;13.02;;;8.18;;
30892;SDS011;17595;50.884;4.346;2022-12-07T09:04:51;17.35;;;8.25;;
30892;SDS011;17595;50.884;4.346;2022-12-07T09:07:16;15.27;;;8.23;;
30892;SDS011;17595;50.884;4.346;2022-12-07T09:09:42;18.00;;;7.85;;
30892;SDS011;17595;50.884;4.346;2022-12-07T09:12:08;11.82;;;7.70;;
30892;SDS011;17595;50.884;4.346;2022-12-07T09:14:33;14.77;;;7.10;;
30892;SDS011;17595;50.884;4.346;2022-12-07T09:17:09;12.23;;;7.40;;
30892;SDS011;17595;50.884;4.346;2022-12-07T09:19:36;12.27;;;7.35;;
30892;SDS011;17595;50.884;4.346;2022-12-07T09:22:03;13.05;;;6.82;;
30892;SDS011;17595;50.884;4.346;2022-12-07T09:24:30;15.35;;;7.05;;
30892;SDS011;17595;50.884;4.346;2022-12-07T09:26:56;15.30;;;7.10;;
30892;SDS011;17595;50.884;4.346;2022-12-07T09:29:23;12.90;;;6.40;;
30892;SDS011;17595;50.884;4.346;2022-12-07T09:31:49;16.17;;;7.35;;
30892;SDS011;17595;50.884;4.346;2022-12-07T09:34:14;11.43;;;6.22;;
30892;SDS011;17595;50.884;4.346;2022-12-07T09:36:40;10.15;;;6.68;;
30892;SDS011;17595;50.884;4.346;2022-12-07T09:39:07;12.45;;;5.38;;
30892;SDS011;17595;50.884;4.346;2022-12-07T09:41:33;10.27;;;5.68;;
30892;SDS011;17595;50.884;4.346;2022-12-07T09:44:06;9.40;;;5.95;;
30892;SDS011;17595;50.884;4.346;2022-12-07T09:46:36;13.65;;;5.85;;
30892;SDS011;17595;50.884;4.346;2022-12-07T09:49:04;14.30;;;6.72;;
30892;SDS011;17595;50.884;4.346;2022-12-07T09:51:30;12.35;;;5.63;;
30892;SDS011;17595;50.884;4.346;2022-12-07T09:53:56;15.80;;;6.20;;
30892;SDS011;17595;50.884;4.346;2022-12-07T09:56:24;13.75;;;6.20;;
30892;SDS011;17595;50.884;4.346;2022-12-07T09:58:51;15.02;;;6.53;;
30892;SDS011;17595;50.884;4.346;2022-12-07T10:01:24;15.38;;;6.53;;
30892;SDS011;17595;50.884;4.346;2022-12-07T10:03:51;15.48;;;6.63;;
30892;SDS011;17595;50.884;4.346;2022-12-07T10:06:17;11.57;;;6.88;;
30892;SDS011;17595;50.884;4.346;2022-12-07T10:08:43;13.43;;;6.43;;
30892;SDS011;17595;50.884;4.346;2022-12-07T10:11:10;10.80;;;5.53;;
30892;SDS011;17595;50.884;4.346;2022-12-07T10:13:40;11.32;;;5.72;;
30892;SDS011;17595;50.884;4.346;2022-12-07T10:16:35;14.38;;;5.80;;
30892;SDS011;17595;50.884;4.346;2022-12-07T10:19:17;9.25;;;4.90;;
30892;SDS011;17595;50.884;4.346;2022-12-07T10:22:03;10.13;;;4.65;;
30892;SDS011;17595;50.884;4.346;2022-12-07T10:24:34;13.10;;;5.13;;
30892;SDS011;17595;50.884;4.346;2022-12-07T10:26:59;13.07;;;5.38;;
30892;SDS011;17595;50.884;4.346;2022-12-07T10:31:56;14.18;;;6.22;;
30892;SDS011;17595;50.884;4.346;2022-12-07T10:39:56;12.10;;;6.10;;
30892;SDS011;17595;50.884;4.346;2022-12-07T10:42:26;11.85;;;5.93;;
30892;SDS011;17595;50.884;4.346;2022-12-07T10:47:44;13.15;;;5.72;;
30892;SDS011;17595;50.884;4.346;2022-12-07T10:55:21;13.20;;;5.50;;
30892;SDS011;17595;50.884;4.346;2022-12-07T11:11:45;9.30;;;5.25;;
30892;SDS011;17595;50.884;4.346;2022-12-07T11:30:07;10.38;;;4.75;;
30892;SDS011;17595;50.884;4.346;2022-12-07T11:38:17;14.13;;;6.82;;
30892;SDS011;17595;50.884;4.346;2022-12-07T11:40:48;12.05;;;5.85;;
30892;SDS011;17595;50.884;4.346;2022-12-07T11:43:31;15.23;;;5.63;;
30892;SDS011;17595;50.884;4.346;2022-12-07T11:48:35;12.43;;;5.75;;
30892;SDS011;17595;50.884;4.346;2022-12-07T11:51:12;13.50;;;5.43;;
30892;SDS011;17595;50.884;4.346;2022-12-07T11:53:45;13.15;;;4.60;;
30892;SDS011;17595;50.884;4.346;2022-12-07T11:56:16;10.10;;;4.72;;
30892;SDS011;17595;50.884;4.346;2022-12-07T12:03:49;8.68;;;4.55;;
30892;SDS011;17595;50.884;4.346;2022-12-07T12:06:17;11.55;;;5.35;;
30892;SDS011;17595;50.884;4.346;2022-12-07T12:08:46;11.00;;;4.13;;
30892;SDS011;17595;50.884;4.346;2022-12-07T12:11:32;9.38;;;3.97;;
30892;SDS011;17595;50.884;4.346;2022-12-07T12:14:33;6.05;;;4.10;;
30892;SDS011;17595;50.884;4.346;2022-12-07T12:22:36;9.38;;;3.45;;
30892;SDS011;17595;50.884;4.346;2022-12-07T12:25:06;8.85;;;2.63;;
30892;SDS011;17595;50.884;4.346;2022-12-07T12:27:45;7.80;;;2.83;;
30892;SDS011;17595;50.884;4.346;2022-12-07T12:33:20;7.75;;;2.35;;
30892;SDS011;17595;50.884;4.346;2022-12-07T12:51:53;5.13;;;1.60;;
30892;SDS011;17595;50.884;4.346;2022-12-07T12:54:24;5.43;;;2.08;;
30892;SDS011;17595;50.884;4.346;2022-12-07T13:07:54;5.47;;;2.35;;
30892;SDS011;17595;50.884;4.346;2022-12-07T13:15:53;3.78;;;1.70;;
30892;SDS011;17595;50.884;4.346;2022-12-07T13:23:27;7.70;;;2.20;;
30892;SDS011;17595;50.884;4.346;2022-12-07T13:25:55;4.70;;;1.92;;
30892;SDS011;17595;50.884;4.346;2022-12-07T13:28:46;4.55;;;1.90;;
30892;SDS011;17595;50.884;4.346;2022-12-07T13:31:19;4.03;;;2.42;;
30892;SDS011;17595;50.884;4.346;2022-12-07T13:33:56;8.10;;;1.88;;
30892;SDS011;17595;50.884;4.346;2022-12-07T13:36:23;6.63;;;2.25;;
30892;SDS011;17595;50.884;4.346;2022-12-07T13:38:52;6.40;;;2.33;;
30892;SDS011;17595;50.884;4.346;2022-12-07T13:41:23;10.38;;;2.63;;
30892;SDS011;17595;50.884;4.346;2022-12-07T13:43:59;7.85;;;2.45;;
30892;SDS011;17595;50.884;4.346;2022-12-07T13:46:26;9.18;;;2.42;;
30892;SDS011;17595;50.884;4.346;2022-12-07T13:49:19;6.32;;;2.40;;
30892;SDS011;17595;50.884;4.346;2022-12-07T13:51:47;6.07;;;2.25;;
30892;SDS011;17595;50.884;4.346;2022-12-07T13:54:14;7.25;;;1.95;;
30892;SDS011;17595;50.884;4.346;2022-12-07T13:56:40;6.40;;;2.20;;
30892;SDS011;17595;50.884;4.346;2022-12-07T13:59:19;5.70;;;2.10;;
30892;SDS011;17595;50.884;4.346;2022-12-07T14:01:48;7.20;;;2.25;;
30892;SDS011;17595;50.884;4.346;2022-12-07T14:04:16;7.32;;;2.13;;
30892;SDS011;17595;50.884;4.346;2022-12-07T14:06:57;5.70;;;1.92;;
30892;SDS011;17595;50.884;4.346;2022-12-07T14:09:24;3.88;;;1.70;;
30892;SDS011;17595;50.884;4.346;2022-12-07T14:11:52;5.35;;;2.17;;
30892;SDS011;17595;50.884;4.346;2022-12-07T14:14:21;7.35;;;2.40;;
30892;SDS011;17595;50.884;4.346;2022-12-07T14:16:59;6.13;;;2.85;;
30892;SDS011;17595;50.884;4.346;2022-12-07T14:22:15;7.50;;;3.40;;
30892;SDS011;17595;50.884;4.346;2022-12-07T14:24:43;8.77;;;3.15;;
30892;SDS011;17595;50.884;4.346;2022-12-07T14:27:19;7.28;;;2.90;;
30892;SDS011;17595;50.884;4.346;2022-12-07T14:29:47;5.18;;;3.30;;
30892;SDS011;17595;50.884;4.346;2022-12-07T14:34:56;6.57;;;2.67;;
30892;SDS011;17595;50.884;4.346;2022-12-07T14:37:35;4.57;;;2.28;;
30892;SDS011;17595;50.884;4.346;2022-12-07T14:40:02;8.15;;;2.75;;
30892;SDS011;17595;50.884;4.346;2022-12-07T14:42:29;5.90;;;2.30;;
30892;SDS011;17595;50.884;4.346;2022-12-07T14:44:56;4.45;;;2.50;;
30892;SDS011;17595;50.884;4.346;2022-12-07T14:47:22;7.47;;;2.47;;
30892;SDS011;17595;50.884;4.346;2022-12-07T14:49:49;5.85;;;1.80;;
30892;SDS011;17595;50.884;4.346;2022-12-07T14:52:17;4.53;;;1.90;;
30892;SDS011;17595;50.884;4.346;2022-12-07T14:54:49;4.65;;;2.00;;
30892;SDS011;17595;50.884;4.346;2022-12-07T14:57:15;4.13;;;1.98;;
30892;SDS011;17595;50.884;4.346;2022-12-07T14:59:40;4.00;;;1.83;;
30892;SDS011;17595;50.884;4.346;2022-12-07T15:02:06;3.55;;;2.15;;
30892;SDS011;17595;50.884;4.346;2022-12-07T15:04:34;4.80;;;3.17;;
30892;SDS011;17595;50.884;4.346;2022-12-07T15:07:03;8.18;;;3.28;;
30892;SDS011;17595;50.884;4.346;2022-12-07T15:09:30;11.60;;;5.65;;
30892;SDS011;17595;50.884;4.346;2022-12-07T15:11:56;5.38;;;3.10;;
30892;SDS011;17595;50.884;4.346;2022-12-07T15:14:22;5.85;;;2.50;;
30892;SDS011;17595;50.884;4.346;2022-12-07T15:16:47;3.95;;;3.15;;
30892;SDS011;17595;50.884;4.346;2022-12-07T15:19:17;4.63;;;2.60;;
30892;SDS011;17595;50.884;4.346;2022-12-07T15:21:45;3.85;;;1.77;;
30892;SDS011;17595;50.884;4.346;2022-12-07T15:24:11;4.55;;;1.85;;
30892;SDS011;17595;50.884;4.346;2022-12-07T15:26:38;7.32;;;2.13;;
30892;SDS011;17595;50.884;4.346;2022-12-07T15:29:05;5.15;;;2.20;;
30892;SDS011;17595;50.884;4.346;2022-12-07T15:31:31;4.45;;;1.80;;
30892;SDS011;17595;50.884;4.346;2022-12-07T15:33:58;7.68;;;2.08;;
30892;SDS011;17595;50.884;4.346;2022-12-07T15:36:24;4.30;;;1.98;;
30892;SDS011;17595;50.884;4.346;2022-12-07T15:38:52;3.87;;;2.20;;
30892;SDS011;17595;50.884;4.346;2022-12-07T15:41:17;5.05;;;2.80;;
30892;SDS011;17595;50.884;4.346;2022-12-07T15:43:43;8.57;;;3.10;;
30892;SDS011;17595;50.884;4.346;2022-12-07T15:46:35;4.13;;;2.95;;
30892;SDS011;17595;50.884;4.346;2022-12-07T15:49:02;5.47;;;3.13;;
30892;SDS011;17595;50.884;4.346;2022-12-07T15:51:28;7.18;;;3.25;;
30892;SDS011;17595;50.884;4.346;2022-12-07T15:53:54;9.30;;;3.05;;
30892;SDS011;17595;50.884;4.346;2022-12-07T15:56:20;6.40;;;3.72;;
30892;SDS011;17595;50.884;4.346;2022-12-07T15:58:45;11.80;;;6.20;;
30892;SDS011;17595;50.884;4.346;2022-12-07T16:01:15;5.38;;;3.53;;
30892;SDS011;17595;50.884;4.346;2022-12-07T16:03:43;11.20;;;7.20;;
30892;SDS011;17595;50.884;4.346;2022-12-07T16:06:09;6.68;;;3.75;;
30892;SDS011;17595;50.884;4.346;2022-12-07T16:08:35;9.55;;;4.18;;
30892;SDS011;17595;50.884;4.346;2022-12-07T16:11:04;10.38;;;4.13;;
30892;SDS011;17595;50.884;4.346;2022-12-07T16:13:31;5.47;;;3.80;;
30892;SDS011;17595;50.884;4.346;2022-12-07T16:15:56;6.15;;;4.53;;
30892;SDS011;17595;50.884;4.346;2022-12-07T16:18:22;6.95;;;4.22;;
30892;SDS011;17595;50.884;4.346;2022-12-07T16:20:48;8.15;;;4.30;;
30892;SDS011;17595;50.884;4.346;2022-12-07T16:23:14;7.60;;;4.60;;
30892;SDS011;17595;50.884;4.346;2022-12-07T16:25:40;8.13;;;4.15;;
30892;SDS011;17595;50.884;4.346;2022-12-07T16:28:05;8.63;;;4.55;;
30892;SDS011;17595;50.884;4.346;2022-12-07T16:30:31;9.23;;;4.57;;
30892;SDS011;17595;50.884;4.346;2022-12-07T16:32:57;7.68;;;4.07;;
30892;SDS011;17595;50.884;4.346;2022-12-07T16:35:22;6.75;;;3.67;;
30892;SDS011;17595;50.884;4.346;2022-12-07T16:37:48;8.25;;;4.72;;
30892;SDS011;17595;50.884;4.346;2022-12-07T16:40:14;10.38;;;4.47;;
30892;SDS011;17595;50.884;4.346;2022-12-07T16:42:39;7.28;;;4.30;;
30892;SDS011;17595;50.884;4.346;2022-12-07T16:45:05;7.70;;;4.43;;
30892;SDS011;17595;50.884;4.346;2022-12-07T16:47:31;7.85;;;4.05;;
30892;SDS011;17595;50.884;4.346;2022-12-07T16:49:56;8.80;;;4.55;;
30892;SDS011;17595;50.884;4.346;2022-12-07T16:52:22;9.10;;;4.82;;
30892;SDS011;17595;50.884;4.346;2022-12-07T16:54:48;9.02;;;5.20;;
30892;SDS011;17595;50.884;4.346;2022-12-07T16:57:15;8.48;;;5.05;;
30892;SDS011;17595;50.884;4.346;2022-12-07T16:59:41;10.73;;;5.38;;
30892;SDS011;17595;50.884;4.346;2022-12-07T17:02:08;13.82;;;5.72;;
30892;SDS011;17595;50.884;4.346;2022-12-07T17:07:04;8.68;;;4.75;;
30892;SDS011;17595;50.884;4.346;2022-12-07T17:09:33;11.50;;;5.65;;
30892;SDS011;17595;50.884;4.346;2022-12-07T17:11:59;8.43;;;4.75;;
30892;SDS011;17595;50.884;4.346;2022-12-07T17:14:25;13.73;;;5.75;;